sensor_id;sensor_type;location;lat;lon;timestamp;P1;durP1;ratioP1;P2;durP2;ratioP2
51286;SDS011;37364;46.974;18.916;2023-07-31T00:01:24;5.07;;;3.65;;
51286;SDS011;37364;46.974;18.916;2023-07-31T00:03:54;4.75;;;3.42;;
51286;SDS011;37364;46.974;18.916;2023-07-31T00:06:27;4.32;;;3.20;;
51286;SDS011;37364;46.974;18.916;2023-07-31T00:08:57;9.00;;;4.03;;
51286;SDS011;37364;46.974;18.916;2023-07-31T00:11:27;5.03;;;3.90;;
51286;SDS011;37364;46.974;18.916;2023-07-31T00:13:58;9.82;;;4.07;;
51286;SDS011;37364;46.974;18.916;2023-07-31T00:16:28;9.30;;;4.78;;
51286;SDS011;37364;46.974;18.916;2023-07-31T00:18:58;7.40;;;4.07;;
51286;SDS011;37364;46.974;18.916;2023-07-31T00:21:31;11.25;;;4.38;;
51286;SDS011;37364;46.974;18.916;2023-07-31T00:24:01;7.40;;;4.05;;
51286;SDS011;37364;46.974;18.916;2023-07-31T00:26:32;11.75;;;4.13;;
51286;SDS011;37364;46.974;18.916;2023-07-31T00:29:03;12.55;;;4.30;;
51286;SDS011;37364;46.974;18.916;2023-07-31T00:31:34;4.57;;;4.10;;
51286;SDS011;37364;46.974;18.916;2023-07-31T00:34:04;9.35;;;4.65;;
51286;SDS011;37364;46.974;18.916;2023-07-31T00:36:37;8.68;;;5.85;;
51286;SDS011;37364;46.974;18.916;2023-07-31T00:39:07;4.93;;;3.88;;
51286;SDS011;37364;46.974;18.916;2023-07-31T00:41:37;11.40;;;4.95;;
51286;SDS011;37364;46.974;18.916;2023-07-31T00:44:09;7.35;;;5.20;;
51286;SDS011;37364;46.974;18.916;2023-07-31T00:46:39;12.25;;;4.78;;
51286;SDS011;37364;46.974;18.916;2023-07-31T00:49:09;5.93;;;4.25;;
51286;SDS011;37364;46.974;18.916;2023-07-31T00:51:43;9.38;;;4.60;;
51286;SDS011;37364;46.974;18.916;2023-07-31T00:54:14;8.05;;;4.82;;
51286;SDS011;37364;46.974;18.916;2023-07-31T00:56:44;10.48;;;4.05;;
51286;SDS011;37364;46.974;18.916;2023-07-31T00:59:15;5.95;;;4.65;;
51286;SDS011;37364;46.974;18.916;2023-07-31T01:01:45;9.73;;;4.30;;
51286;SDS011;37364;46.974;18.916;2023-07-31T01:04:16;6.15;;;4.38;;
51286;SDS011;37364;46.974;18.916;2023-07-31T01:06:53;11.23;;;4.00;;
51286;SDS011;37364;46.974;18.916;2023-07-31T01:09:32;6.43;;;4.03;;
51286;SDS011;37364;46.974;18.916;2023-07-31T01:12:12;4.97;;;4.38;;
51286;SDS011;37364;46.974;18.916;2023-07-31T01:14:51;4.65;;;4.07;;
51286;SDS011;37364;46.974;18.916;2023-07-31T01:17:21;10.60;;;4.90;;
51286;SDS011;37364;46.974;18.916;2023-07-31T01:19:51;4.95;;;4.07;;
51286;SDS011;37364;46.974;18.916;2023-07-31T01:22:28;6.82;;;4.35;;
51286;SDS011;37364;46.974;18.916;2023-07-31T01:25:14;7.40;;;4.45;;
51286;SDS011;37364;46.974;18.916;2023-07-31T01:27:57;5.15;;;4.22;;
51286;SDS011;37364;46.974;18.916;2023-07-31T01:30:32;6.47;;;4.15;;
51286;SDS011;37364;46.974;18.916;2023-07-31T01:33:06;11.25;;;4.28;;
51286;SDS011;37364;46.974;18.916;2023-07-31T01:35:37;6.82;;;4.03;;
51286;SDS011;37364;46.974;18.916;2023-07-31T01:38:08;8.00;;;4.65;;
51286;SDS011;37364;46.974;18.916;2023-07-31T01:40:40;5.85;;;4.25;;
51286;SDS011;37364;46.974;18.916;2023-07-31T01:43:14;3.65;;;3.33;;
51286;SDS011;37364;46.974;18.916;2023-07-31T01:45:44;8.10;;;4.28;;
51286;SDS011;37364;46.974;18.916;2023-07-31T01:48:17;8.07;;;4.22;;
51286;SDS011;37364;46.974;18.916;2023-07-31T01:50:47;8.00;;;5.22;;
51286;SDS011;37364;46.974;18.916;2023-07-31T01:53:17;8.32;;;4.13;;
51286;SDS011;37364;46.974;18.916;2023-07-31T01:55:47;6.53;;;3.50;;
51286;SDS011;37364;46.974;18.916;2023-07-31T01:58:20;4.28;;;3.70;;
51286;SDS011;37364;46.974;18.916;2023-07-31T02:00:50;7.43;;;4.25;;
51286;SDS011;37364;46.974;18.916;2023-07-31T02:03:18;8.93;;;4.00;;
51286;SDS011;37364;46.974;18.916;2023-07-31T02:05:51;6.10;;;3.88;;
51286;SDS011;37364;46.974;18.916;2023-07-31T02:08:24;4.82;;;4.07;;
51286;SDS011;37364;46.974;18.916;2023-07-31T02:10:54;11.85;;;3.80;;
51286;SDS011;37364;46.974;18.916;2023-07-31T02:13:28;5.45;;;3.58;;
51286;SDS011;37364;46.974;18.916;2023-07-31T02:15:58;10.23;;;3.40;;
51286;SDS011;37364;46.974;18.916;2023-07-31T02:18:28;4.03;;;3.42;;
51286;SDS011;37364;46.974;18.916;2023-07-31T02:20:59;5.20;;;3.50;;
51286;SDS011;37364;46.974;18.916;2023-07-31T02:23:29;16.20;;;4.47;;
51286;SDS011;37364;46.974;18.916;2023-07-31T02:25:59;8.20;;;3.67;;
51286;SDS011;37364;46.974;18.916;2023-07-31T02:28:32;6.10;;;3.97;;
51286;SDS011;37364;46.974;18.916;2023-07-31T02:31:04;6.30;;;3.30;;
51286;SDS011;37364;46.974;18.916;2023-07-31T02:33:34;5.63;;;4.03;;
51286;SDS011;37364;46.974;18.916;2023-07-31T02:36:04;6.88;;;3.92;;
51286;SDS011;37364;46.974;18.916;2023-07-31T02:38:35;7.72;;;3.75;;
51286;SDS011;37364;46.974;18.916;2023-07-31T02:41:05;6.68;;;3.88;;
51286;SDS011;37364;46.974;18.916;2023-07-31T02:43:38;4.20;;;3.65;;
51286;SDS011;37364;46.974;18.916;2023-07-31T02:46:10;9.20;;;3.85;;
51286;SDS011;37364;46.974;18.916;2023-07-31T02:48:40;6.20;;;3.53;;
51286;SDS011;37364;46.974;18.916;2023-07-31T02:51:10;5.07;;;3.88;;
51286;SDS011;37364;46.974;18.916;2023-07-31T02:53:42;9.38;;;3.67;;
51286;SDS011;37364;46.974;18.916;2023-07-31T02:56:12;6.60;;;3.80;;
51286;SDS011;37364;46.974;18.916;2023-07-31T02:58:45;3.80;;;3.00;;
51286;SDS011;37364;46.974;18.916;2023-07-31T03:01:15;3.90;;;3.40;;
51286;SDS011;37364;46.974;18.916;2023-07-31T03:03:46;7.13;;;3.42;;
51286;SDS011;37364;46.974;18.916;2023-07-31T03:06:16;5.03;;;4.07;;
51286;SDS011;37364;46.974;18.916;2023-07-31T03:08:47;8.43;;;3.85;;
51286;SDS011;37364;46.974;18.916;2023-07-31T03:11:17;6.43;;;3.75;;
51286;SDS011;37364;46.974;18.916;2023-07-31T03:13:50;13.07;;;4.32;;
51286;SDS011;37364;46.974;18.916;2023-07-31T03:16:21;8.88;;;4.20;;
51286;SDS011;37364;46.974;18.916;2023-07-31T03:18:51;13.95;;;4.32;;
51286;SDS011;37364;46.974;18.916;2023-07-31T03:21:21;5.20;;;4.03;;
51286;SDS011;37364;46.974;18.916;2023-07-31T03:23:51;6.25;;;3.85;;
51286;SDS011;37364;46.974;18.916;2023-07-31T03:26:21;4.72;;;3.65;;
51286;SDS011;37364;46.974;18.916;2023-07-31T03:28:54;7.25;;;3.50;;
51286;SDS011;37364;46.974;18.916;2023-07-31T03:31:25;13.60;;;3.60;;
51286;SDS011;37364;46.974;18.916;2023-07-31T03:33:56;7.15;;;3.45;;
51286;SDS011;37364;46.974;18.916;2023-07-31T03:36:26;9.65;;;3.17;;
51286;SDS011;37364;46.974;18.916;2023-07-31T03:38:57;7.65;;;3.20;;
51286;SDS011;37364;46.974;18.916;2023-07-31T03:41:27;4.40;;;3.42;;
51286;SDS011;37364;46.974;18.916;2023-07-31T03:44:01;8.02;;;3.53;;
51286;SDS011;37364;46.974;18.916;2023-07-31T03:46:31;7.13;;;3.67;;
51286;SDS011;37364;46.974;18.916;2023-07-31T03:49:03;9.25;;;3.78;;
51286;SDS011;37364;46.974;18.916;2023-07-31T03:51:33;10.20;;;3.38;;
51286;SDS011;37364;46.974;18.916;2023-07-31T03:54:04;6.88;;;3.38;;
51286;SDS011;37364;46.974;18.916;2023-07-31T03:56:34;4.63;;;3.22;;
51286;SDS011;37364;46.974;18.916;2023-07-31T03:59:08;5.85;;;2.97;;
51286;SDS011;37364;46.974;18.916;2023-07-31T04:01:38;3.50;;;3.20;;
51286;SDS011;37364;46.974;18.916;2023-07-31T04:04:09;7.35;;;3.65;;
51286;SDS011;37364;46.974;18.916;2023-07-31T04:06:39;6.38;;;3.42;;
51286;SDS011;37364;46.974;18.916;2023-07-31T04:09:09;7.65;;;2.95;;
51286;SDS011;37364;46.974;18.916;2023-07-31T04:11:39;5.05;;;3.15;;
51286;SDS011;37364;46.974;18.916;2023-07-31T04:14:13;4.50;;;2.97;;
51286;SDS011;37364;46.974;18.916;2023-07-31T04:16:44;7.68;;;3.35;;
51286;SDS011;37364;46.974;18.916;2023-07-31T04:19:14;7.55;;;3.08;;
51286;SDS011;37364;46.974;18.916;2023-07-31T04:21:44;9.98;;;3.50;;
51286;SDS011;37364;46.974;18.916;2023-07-31T04:24:14;6.72;;;3.47;;
51286;SDS011;37364;46.974;18.916;2023-07-31T04:26:51;3.55;;;3.05;;
51286;SDS011;37364;46.974;18.916;2023-07-31T04:29:24;9.77;;;3.58;;
51286;SDS011;37364;46.974;18.916;2023-07-31T04:31:54;5.78;;;3.63;;
51286;SDS011;37364;46.974;18.916;2023-07-31T04:34:24;3.65;;;2.70;;
51286;SDS011;37364;46.974;18.916;2023-07-31T04:36:55;3.47;;;3.08;;
51286;SDS011;37364;46.974;18.916;2023-07-31T04:39:25;7.22;;;3.55;;
51286;SDS011;37364;46.974;18.916;2023-07-31T04:41:55;7.78;;;3.47;;
51286;SDS011;37364;46.974;18.916;2023-07-31T04:44:28;3.63;;;3.20;;
51286;SDS011;37364;46.974;18.916;2023-07-31T04:46:58;3.70;;;2.70;;
51286;SDS011;37364;46.974;18.916;2023-07-31T04:49:28;7.55;;;3.05;;
51286;SDS011;37364;46.974;18.916;2023-07-31T04:51:59;10.38;;;3.15;;
51286;SDS011;37364;46.974;18.916;2023-07-31T04:54:29;10.40;;;3.38;;
51286;SDS011;37364;46.974;18.916;2023-07-31T04:56:59;4.15;;;3.40;;
51286;SDS011;37364;46.974;18.916;2023-07-31T04:59:32;7.38;;;2.80;;
51286;SDS011;37364;46.974;18.916;2023-07-31T05:02:02;6.45;;;2.90;;
51286;SDS011;37364;46.974;18.916;2023-07-31T05:04:33;8.98;;;3.10;;
51286;SDS011;37364;46.974;18.916;2023-07-31T05:07:03;11.23;;;3.08;;
51286;SDS011;37364;46.974;18.916;2023-07-31T05:09:34;8.05;;;2.85;;
51286;SDS011;37364;46.974;18.916;2023-07-31T05:12:06;14.25;;;2.95;;
51286;SDS011;37364;46.974;18.916;2023-07-31T05:14:39;4.35;;;2.70;;
51286;SDS011;37364;46.974;18.916;2023-07-31T05:17:09;4.72;;;2.90;;
51286;SDS011;37364;46.974;18.916;2023-07-31T05:19:39;7.07;;;2.85;;
51286;SDS011;37364;46.974;18.916;2023-07-31T05:22:09;7.10;;;2.97;;
51286;SDS011;37364;46.974;18.916;2023-07-31T05:24:42;7.95;;;3.38;;
51286;SDS011;37364;46.974;18.916;2023-07-31T05:27:12;9.07;;;3.30;;
51286;SDS011;37364;46.974;18.916;2023-07-31T05:29:47;3.38;;;2.58;;
51286;SDS011;37364;46.974;18.916;2023-07-31T05:32:17;10.20;;;3.85;;
51286;SDS011;37364;46.974;18.916;2023-07-31T05:34:50;4.00;;;2.45;;
51286;SDS011;37364;46.974;18.916;2023-07-31T05:37:21;5.50;;;3.00;;
51286;SDS011;37364;46.974;18.916;2023-07-31T05:39:52;7.72;;;2.80;;
51286;SDS011;37364;46.974;18.916;2023-07-31T05:42:22;2.95;;;2.70;;
51286;SDS011;37364;46.974;18.916;2023-07-31T05:44:55;7.40;;;2.35;;
51286;SDS011;37364;46.974;18.916;2023-07-31T05:47:25;5.53;;;2.80;;
51286;SDS011;37364;46.974;18.916;2023-07-31T05:49:55;3.53;;;2.45;;
51286;SDS011;37364;46.974;18.916;2023-07-31T05:52:25;6.63;;;3.05;;
51286;SDS011;37364;46.974;18.916;2023-07-31T05:54:55;8.95;;;3.20;;
51286;SDS011;37364;46.974;18.916;2023-07-31T05:57:26;8.15;;;2.80;;
51286;SDS011;37364;46.974;18.916;2023-07-31T05:59:59;7.97;;;3.55;;
51286;SDS011;37364;46.974;18.916;2023-07-31T06:02:30;6.30;;;2.60;;
51286;SDS011;37364;46.974;18.916;2023-07-31T06:05:04;7.20;;;2.72;;
51286;SDS011;37364;46.974;18.916;2023-07-31T06:07:35;3.55;;;2.88;;
51286;SDS011;37364;46.974;18.916;2023-07-31T06:10:06;4.53;;;2.42;;
51286;SDS011;37364;46.974;18.916;2023-07-31T06:12:37;12.57;;;2.95;;
51286;SDS011;37364;46.974;18.916;2023-07-31T06:15:10;12.98;;;3.05;;
51286;SDS011;37364;46.974;18.916;2023-07-31T06:17:41;4.85;;;2.35;;
51286;SDS011;37364;46.974;18.916;2023-07-31T06:20:12;11.27;;;2.75;;
51286;SDS011;37364;46.974;18.916;2023-07-31T06:22:42;6.18;;;3.33;;
51286;SDS011;37364;46.974;18.916;2023-07-31T06:25:13;8.07;;;2.47;;
51286;SDS011;37364;46.974;18.916;2023-07-31T06:27:43;5.97;;;2.47;;
51286;SDS011;37364;46.974;18.916;2023-07-31T06:30:16;9.35;;;2.58;;
51286;SDS011;37364;46.974;18.916;2023-07-31T06:32:46;4.68;;;2.67;;
51286;SDS011;37364;46.974;18.916;2023-07-31T06:35:17;6.80;;;2.90;;
51286;SDS011;37364;46.974;18.916;2023-07-31T06:37:47;7.30;;;2.72;;
51286;SDS011;37364;46.974;18.916;2023-07-31T06:40:17;5.50;;;3.05;;
51286;SDS011;37364;46.974;18.916;2023-07-31T06:42:48;8.05;;;2.47;;
51286;SDS011;37364;46.974;18.916;2023-07-31T06:45:20;4.00;;;2.58;;
51286;SDS011;37364;46.974;18.916;2023-07-31T06:47:51;2.60;;;1.80;;
51286;SDS011;37364;46.974;18.916;2023-07-31T06:50:22;3.42;;;2.40;;
51286;SDS011;37364;46.974;18.916;2023-07-31T06:52:52;7.85;;;2.53;;
51286;SDS011;37364;46.974;18.916;2023-07-31T06:55:22;4.43;;;2.33;;
51286;SDS011;37364;46.974;18.916;2023-07-31T06:57:54;10.57;;;4.75;;
51286;SDS011;37364;46.974;18.916;2023-07-31T07:00:27;14.38;;;3.05;;
51286;SDS011;37364;46.974;18.916;2023-07-31T07:02:59;14.23;;;4.18;;
51286;SDS011;37364;46.974;18.916;2023-07-31T07:05:29;12.40;;;3.20;;
51286;SDS011;37364;46.974;18.916;2023-07-31T07:07:59;20.63;;;4.28;;
51286;SDS011;37364;46.974;18.916;2023-07-31T07:10:29;6.32;;;2.35;;
51286;SDS011;37364;46.974;18.916;2023-07-31T07:13:00;9.77;;;2.45;;
51286;SDS011;37364;46.974;18.916;2023-07-31T07:15:33;5.25;;;2.28;;
51286;SDS011;37364;46.974;18.916;2023-07-31T07:18:03;8.65;;;2.45;;
51286;SDS011;37364;46.974;18.916;2023-07-31T07:20:34;4.00;;;2.30;;
51286;SDS011;37364;46.974;18.916;2023-07-31T07:23:04;8.70;;;2.58;;
51286;SDS011;37364;46.974;18.916;2023-07-31T07:25:38;6.90;;;2.40;;
51286;SDS011;37364;46.974;18.916;2023-07-31T07:28:08;10.77;;;2.85;;
51286;SDS011;37364;46.974;18.916;2023-07-31T07:30:41;3.75;;;2.38;;
51286;SDS011;37364;46.974;18.916;2023-07-31T07:33:11;9.70;;;2.90;;
51286;SDS011;37364;46.974;18.916;2023-07-31T07:35:42;9.18;;;2.38;;
51286;SDS011;37364;46.974;18.916;2023-07-31T07:38:13;10.77;;;2.75;;
51286;SDS011;37364;46.974;18.916;2023-07-31T07:40:45;4.60;;;2.63;;
51286;SDS011;37364;46.974;18.916;2023-07-31T07:43:17;15.57;;;4.70;;
51286;SDS011;37364;46.974;18.916;2023-07-31T07:45:50;10.35;;;3.72;;
51286;SDS011;37364;46.974;18.916;2023-07-31T07:48:20;7.78;;;3.28;;
51286;SDS011;37364;46.974;18.916;2023-07-31T07:50:53;15.85;;;4.63;;
51286;SDS011;37364;46.974;18.916;2023-07-31T07:53:23;9.18;;;2.60;;
51286;SDS011;37364;46.974;18.916;2023-07-31T07:55:53;8.85;;;1.98;;
51286;SDS011;37364;46.974;18.916;2023-07-31T07:58:23;12.65;;;3.70;;
51286;SDS011;37364;46.974;18.916;2023-07-31T08:00:56;8.10;;;3.15;;
51286;SDS011;37364;46.974;18.916;2023-07-31T08:05:58;9.98;;;2.40;;
51286;SDS011;37364;46.974;18.916;2023-07-31T08:08:29;6.95;;;2.53;;
51286;SDS011;37364;46.974;18.916;2023-07-31T08:11:00;14.18;;;2.45;;
51286;SDS011;37364;46.974;18.916;2023-07-31T08:13:30;3.45;;;1.55;;
51286;SDS011;37364;46.974;18.916;2023-07-31T08:16:04;12.18;;;2.15;;
51286;SDS011;37364;46.974;18.916;2023-07-31T08:18:35;7.20;;;2.10;;
51286;SDS011;37364;46.974;18.916;2023-07-31T08:21:07;7.72;;;2.22;;
51286;SDS011;37364;46.974;18.916;2023-07-31T08:23:38;5.28;;;1.55;;
51286;SDS011;37364;46.974;18.916;2023-07-31T08:26:08;4.22;;;1.80;;
51286;SDS011;37364;46.974;18.916;2023-07-31T08:28:44;7.05;;;1.80;;
51286;SDS011;37364;46.974;18.916;2023-07-31T08:31:17;10.43;;;1.92;;
51286;SDS011;37364;46.974;18.916;2023-07-31T08:36:17;14.45;;;2.10;;
51286;SDS011;37364;46.974;18.916;2023-07-31T08:38:48;8.55;;;2.22;;
51286;SDS011;37364;46.974;18.916;2023-07-31T08:41:20;8.53;;;2.00;;
51286;SDS011;37364;46.974;18.916;2023-07-31T08:43:50;4.85;;;2.28;;
51286;SDS011;37364;46.974;18.916;2023-07-31T08:46:24;6.97;;;2.42;;
51286;SDS011;37364;46.974;18.916;2023-07-31T08:48:55;4.35;;;2.20;;
51286;SDS011;37364;46.974;18.916;2023-07-31T08:51:25;12.13;;;2.17;;
51286;SDS011;37364;46.974;18.916;2023-07-31T08:53:57;10.90;;;1.88;;
51286;SDS011;37364;46.974;18.916;2023-07-31T08:56:27;9.82;;;1.67;;
51286;SDS011;37364;46.974;18.916;2023-07-31T08:59:01;7.07;;;2.40;;
51286;SDS011;37364;46.974;18.916;2023-07-31T09:01:37;6.45;;;2.22;;
51286;SDS011;37364;46.974;18.916;2023-07-31T09:04:13;9.20;;;2.58;;
51286;SDS011;37364;46.974;18.916;2023-07-31T09:06:46;7.05;;;2.30;;
51286;SDS011;37364;46.974;18.916;2023-07-31T09:09:17;10.70;;;2.45;;
51286;SDS011;37364;46.974;18.916;2023-07-31T09:11:49;7.93;;;2.03;;
51286;SDS011;37364;46.974;18.916;2023-07-31T09:14:20;13.68;;;2.28;;
51286;SDS011;37364;46.974;18.916;2023-07-31T09:16:54;12.73;;;1.77;;
51286;SDS011;37364;46.974;18.916;2023-07-31T09:19:27;9.07;;;2.42;;
51286;SDS011;37364;46.974;18.916;2023-07-31T09:21:59;19.80;;;2.47;;
51286;SDS011;37364;46.974;18.916;2023-07-31T09:24:30;9.73;;;1.88;;
51286;SDS011;37364;46.974;18.916;2023-07-31T09:27:01;7.20;;;2.20;;
51286;SDS011;37364;46.974;18.916;2023-07-31T09:29:32;9.07;;;2.03;;
51286;SDS011;37364;46.974;18.916;2023-07-31T09:32:05;10.73;;;2.33;;
51286;SDS011;37364;46.974;18.916;2023-07-31T09:37:15;4.35;;;2.03;;
51286;SDS011;37364;46.974;18.916;2023-07-31T09:39:46;13.27;;;2.38;;
51286;SDS011;37364;46.974;18.916;2023-07-31T09:42:25;7.32;;;2.15;;
51286;SDS011;37364;46.974;18.916;2023-07-31T09:45:06;8.32;;;2.28;;
51286;SDS011;37364;46.974;18.916;2023-07-31T09:47:48;8.52;;;2.00;;
51286;SDS011;37364;46.974;18.916;2023-07-31T09:50:20;4.72;;;1.80;;
51286;SDS011;37364;46.974;18.916;2023-07-31T09:52:51;4.75;;;2.17;;
51286;SDS011;37364;46.974;18.916;2023-07-31T09:55:23;6.68;;;2.17;;
51286;SDS011;37364;46.974;18.916;2023-07-31T09:57:54;6.57;;;2.20;;
51286;SDS011;37364;46.974;18.916;2023-07-31T10:00:26;12.10;;;2.05;;
51286;SDS011;37364;46.974;18.916;2023-07-31T10:03:01;6.75;;;2.50;;
51286;SDS011;37364;46.974;18.916;2023-07-31T10:05:36;11.10;;;2.60;;
51286;SDS011;37364;46.974;18.916;2023-07-31T10:08:09;6.78;;;2.08;;
51286;SDS011;37364;46.974;18.916;2023-07-31T10:10:43;4.75;;;1.85;;
51286;SDS011;37364;46.974;18.916;2023-07-31T10:13:14;5.13;;;2.40;;
51286;SDS011;37364;46.974;18.916;2023-07-31T10:15:46;9.63;;;2.17;;
51286;SDS011;37364;46.974;18.916;2023-07-31T10:18:22;4.40;;;1.65;;
51286;SDS011;37364;46.974;18.916;2023-07-31T10:20:54;8.05;;;3.28;;
51286;SDS011;37364;46.974;18.916;2023-07-31T10:23:25;5.63;;;2.08;;
51286;SDS011;37364;46.974;18.916;2023-07-31T10:25:56;4.72;;;2.10;;
51286;SDS011;37364;46.974;18.916;2023-07-31T10:28:28;7.82;;;2.10;;
51286;SDS011;37364;46.974;18.916;2023-07-31T10:31:01;33.60;;;2.67;;
51286;SDS011;37364;46.974;18.916;2023-07-31T10:33:35;10.43;;;2.92;;
51286;SDS011;37364;46.974;18.916;2023-07-31T10:36:13;6.22;;;2.72;;
51286;SDS011;37364;46.974;18.916;2023-07-31T10:38:44;9.07;;;2.70;;
51286;SDS011;37364;46.974;18.916;2023-07-31T10:41:14;5.60;;;2.67;;
51286;SDS011;37364;46.974;18.916;2023-07-31T10:43:45;11.15;;;1.98;;
51286;SDS011;37364;46.974;18.916;2023-07-31T10:46:16;7.03;;;2.50;;
51286;SDS011;37364;46.974;18.916;2023-07-31T10:48:49;13.85;;;3.38;;
51286;SDS011;37364;46.974;18.916;2023-07-31T10:51:37;17.50;;;3.10;;
51286;SDS011;37364;46.974;18.916;2023-07-31T10:54:10;10.13;;;2.88;;
51286;SDS011;37364;46.974;18.916;2023-07-31T10:56:44;8.68;;;3.30;;
51286;SDS011;37364;46.974;18.916;2023-07-31T10:59:15;7.60;;;2.50;;
51286;SDS011;37364;46.974;18.916;2023-07-31T11:01:49;10.82;;;4.60;;
51286;SDS011;37364;46.974;18.916;2023-07-31T11:04:27;6.68;;;2.90;;
51286;SDS011;37364;46.974;18.916;2023-07-31T11:06:58;5.03;;;2.00;;
51286;SDS011;37364;46.974;18.916;2023-07-31T11:09:33;7.93;;;2.28;;
51286;SDS011;37364;46.974;18.916;2023-07-31T11:12:03;9.65;;;1.80;;
51286;SDS011;37364;46.974;18.916;2023-07-31T11:14:34;6.60;;;2.10;;
51286;SDS011;37364;46.974;18.916;2023-07-31T11:17:05;3.85;;;1.73;;
51286;SDS011;37364;46.974;18.916;2023-07-31T11:19:39;5.45;;;1.83;;
51286;SDS011;37364;46.974;18.916;2023-07-31T11:22:09;4.88;;;1.77;;
51286;SDS011;37364;46.974;18.916;2023-07-31T11:24:41;6.93;;;2.47;;
51286;SDS011;37364;46.974;18.916;2023-07-31T11:27:11;5.32;;;2.20;;
51286;SDS011;37364;46.974;18.916;2023-07-31T11:29:45;6.15;;;2.15;;
51286;SDS011;37364;46.974;18.916;2023-07-31T11:32:16;5.63;;;1.83;;
51286;SDS011;37364;46.974;18.916;2023-07-31T11:34:55;4.95;;;2.10;;
51286;SDS011;37364;46.974;18.916;2023-07-31T11:37:37;6.30;;;2.30;;
51286;SDS011;37364;46.974;18.916;2023-07-31T11:42:40;7.85;;;2.10;;
51286;SDS011;37364;46.974;18.916;2023-07-31T11:45:11;10.50;;;1.80;;
51286;SDS011;37364;46.974;18.916;2023-07-31T11:47:43;6.35;;;2.00;;
51286;SDS011;37364;46.974;18.916;2023-07-31T11:50:16;10.15;;;2.10;;
51286;SDS011;37364;46.974;18.916;2023-07-31T11:52:46;9.57;;;2.10;;
51286;SDS011;37364;46.974;18.916;2023-07-31T11:55:20;7.47;;;1.70;;
51286;SDS011;37364;46.974;18.916;2023-07-31T11:57:51;5.05;;;1.88;;
51286;SDS011;37364;46.974;18.916;2023-07-31T12:00:23;6.70;;;2.00;;
51286;SDS011;37364;46.974;18.916;2023-07-31T12:02:54;13.40;;;2.28;;
51286;SDS011;37364;46.974;18.916;2023-07-31T12:05:27;9.98;;;2.40;;
51286;SDS011;37364;46.974;18.916;2023-07-31T12:07:57;8.65;;;2.25;;
51286;SDS011;37364;46.974;18.916;2023-07-31T12:10:28;5.15;;;1.95;;
51286;SDS011;37364;46.974;18.916;2023-07-31T12:13:00;8.73;;;2.30;;
51286;SDS011;37364;46.974;18.916;2023-07-31T12:15:37;13.20;;;2.60;;
51286;SDS011;37364;46.974;18.916;2023-07-31T12:18:09;3.80;;;2.22;;
51286;SDS011;37364;46.974;18.916;2023-07-31T12:20:45;6.43;;;2.80;;
51286;SDS011;37364;46.974;18.916;2023-07-31T12:23:16;6.10;;;2.15;;
51286;SDS011;37364;46.974;18.916;2023-07-31T12:26:00;7.15;;;2.22;;
51286;SDS011;37364;46.974;18.916;2023-07-31T12:28:34;9.07;;;4.30;;
51286;SDS011;37364;46.974;18.916;2023-07-31T12:31:08;7.35;;;2.95;;
51286;SDS011;37364;46.974;18.916;2023-07-31T12:33:40;4.90;;;2.58;;
51286;SDS011;37364;46.974;18.916;2023-07-31T12:36:14;8.35;;;2.72;;
51286;SDS011;37364;46.974;18.916;2023-07-31T12:38:46;10.10;;;5.15;;
51286;SDS011;37364;46.974;18.916;2023-07-31T12:41:16;11.40;;;2.53;;
51286;SDS011;37364;46.974;18.916;2023-07-31T12:43:47;9.30;;;4.78;;
51286;SDS011;37364;46.974;18.916;2023-07-31T12:46:18;18.02;;;3.00;;
51286;SDS011;37364;46.974;18.916;2023-07-31T12:48:48;12.57;;;2.53;;
51286;SDS011;37364;46.974;18.916;2023-07-31T12:51:21;8.02;;;1.95;;
51286;SDS011;37364;46.974;18.916;2023-07-31T12:53:51;4.55;;;1.85;;
51286;SDS011;37364;46.974;18.916;2023-07-31T12:56:21;6.07;;;2.03;;
51286;SDS011;37364;46.974;18.916;2023-07-31T12:58:51;5.03;;;1.80;;
51286;SDS011;37364;46.974;18.916;2023-07-31T13:01:21;9.40;;;2.10;;
51286;SDS011;37364;46.974;18.916;2023-07-31T13:03:52;8.85;;;2.75;;
51286;SDS011;37364;46.974;18.916;2023-07-31T13:06:25;3.83;;;1.65;;
51286;SDS011;37364;46.974;18.916;2023-07-31T13:08:55;2.65;;;1.60;;
51286;SDS011;37364;46.974;18.916;2023-07-31T13:11:25;8.55;;;2.00;;
51286;SDS011;37364;46.974;18.916;2023-07-31T13:13:56;5.90;;;2.15;;
51286;SDS011;37364;46.974;18.916;2023-07-31T13:16:26;6.35;;;2.38;;
51286;SDS011;37364;46.974;18.916;2023-07-31T13:18:54;10.02;;;2.67;;
51286;SDS011;37364;46.974;18.916;2023-07-31T13:21:27;10.43;;;2.30;;
51286;SDS011;37364;46.974;18.916;2023-07-31T13:23:57;4.80;;;2.00;;
51286;SDS011;37364;46.974;18.916;2023-07-31T13:26:28;6.00;;;1.90;;
51286;SDS011;37364;46.974;18.916;2023-07-31T13:28:58;3.97;;;1.80;;
51286;SDS011;37364;46.974;18.916;2023-07-31T13:31:28;14.38;;;3.00;;
51286;SDS011;37364;46.974;18.916;2023-07-31T13:33:58;6.45;;;2.10;;
51286;SDS011;37364;46.974;18.916;2023-07-31T13:36:32;14.20;;;2.78;;
51286;SDS011;37364;46.974;18.916;2023-07-31T13:39:04;9.32;;;2.60;;
51286;SDS011;37364;46.974;18.916;2023-07-31T13:41:34;4.70;;;1.83;;
51286;SDS011;37364;46.974;18.916;2023-07-31T13:44:05;18.75;;;2.58;;
51286;SDS011;37364;46.974;18.916;2023-07-31T13:46:35;10.38;;;2.15;;
51286;SDS011;37364;46.974;18.916;2023-07-31T13:49:05;5.53;;;2.03;;
51286;SDS011;37364;46.974;18.916;2023-07-31T13:51:38;6.80;;;2.17;;
51286;SDS011;37364;46.974;18.916;2023-07-31T13:54:10;6.40;;;2.55;;
51286;SDS011;37364;46.974;18.916;2023-07-31T13:56:42;14.18;;;2.28;;
51286;SDS011;37364;46.974;18.916;2023-07-31T13:59:15;5.60;;;1.98;;
51286;SDS011;37364;46.974;18.916;2023-07-31T14:01:46;5.78;;;1.83;;
51286;SDS011;37364;46.974;18.916;2023-07-31T14:04:16;6.25;;;2.08;;
51286;SDS011;37364;46.974;18.916;2023-07-31T14:06:49;8.07;;;1.83;;
51286;SDS011;37364;46.974;18.916;2023-07-31T14:11:50;11.60;;;2.75;;
51286;SDS011;37364;46.974;18.916;2023-07-31T14:14:20;8.18;;;2.10;;
51286;SDS011;37364;46.974;18.916;2023-07-31T14:16:50;16.90;;;3.50;;
51286;SDS011;37364;46.974;18.916;2023-07-31T14:19:21;13.07;;;2.58;;
51286;SDS011;37364;46.974;18.916;2023-07-31T14:21:54;10.15;;;3.47;;
51286;SDS011;37364;46.974;18.916;2023-07-31T14:24:37;5.95;;;2.10;;
51286;SDS011;37364;46.974;18.916;2023-07-31T14:27:07;4.68;;;2.05;;
51286;SDS011;37364;46.974;18.916;2023-07-31T14:29:38;7.13;;;3.88;;
51286;SDS011;37364;46.974;18.916;2023-07-31T14:32:08;15.02;;;4.85;;
51286;SDS011;37364;46.974;18.916;2023-07-31T14:34:38;12.13;;;3.33;;
51286;SDS011;37364;46.974;18.916;2023-07-31T14:37:12;10.90;;;3.45;;
51286;SDS011;37364;46.974;18.916;2023-07-31T14:39:42;6.60;;;3.33;;
51286;SDS011;37364;46.974;18.916;2023-07-31T14:42:12;13.13;;;2.97;;
51286;SDS011;37364;46.974;18.916;2023-07-31T14:44:45;9.60;;;3.13;;
51286;SDS011;37364;46.974;18.916;2023-07-31T14:47:16;12.40;;;3.83;;
51286;SDS011;37364;46.974;18.916;2023-07-31T14:49:46;18.90;;;6.47;;
51286;SDS011;37364;46.974;18.916;2023-07-31T14:52:19;11.20;;;5.88;;
51286;SDS011;37364;46.974;18.916;2023-07-31T14:54:49;14.98;;;3.70;;
51286;SDS011;37364;46.974;18.916;2023-07-31T14:57:19;7.90;;;3.95;;
51286;SDS011;37364;46.974;18.916;2023-07-31T14:59:52;6.63;;;2.63;;
51286;SDS011;37364;46.974;18.916;2023-07-31T15:02:23;9.25;;;2.28;;
51286;SDS011;37364;46.974;18.916;2023-07-31T15:04:55;11.57;;;2.72;;
51286;SDS011;37364;46.974;18.916;2023-07-31T15:07:27;9.82;;;1.92;;
51286;SDS011;37364;46.974;18.916;2023-07-31T15:09:58;6.78;;;1.98;;